sensor_id;sensor_type;location;lat;lon;timestamp;temperature;humidity
16625;DHT22;8426;48.496;9.098;2023-08-20T06:08:54;20.60;99.90
16625;DHT22;8426;48.496;9.098;2023-08-20T06:14:10;20.80;99.90
16625;DHT22;8426;48.496;9.098;2023-08-20T06:19:13;21.10;99.90
16625;DHT22;8426;48.496;9.098;2023-08-20T06:24:21;21.30;99.90
16625;DHT22;8426;48.496;9.098;2023-08-20T06:29:25;22.60;99.90
16625;DHT22;8426;48.496;9.098;2023-08-20T06:34:28;26.80;99.90
16625;DHT22;8426;48.496;9.098;2023-08-20T06:39:33;30.20;99.90
16625;DHT22;8426;48.496;9.098;2023-08-20T06:44:36;32.10;99.90
16625;DHT22;8426;48.496;9.098;2023-08-20T06:49:40;33.70;99.90
16625;DHT22;8426;48.496;9.098;2023-08-20T06:54:45;34.70;99.90
16625;DHT22;8426;48.496;9.098;2023-08-20T06:59:48;34.80;99.90
16625;DHT22;8426;48.496;9.098;2023-08-20T07:04:51;36.00;99.90
16625;DHT22;8426;48.496;9.098;2023-08-20T07:09:56;36.10;99.90
16625;DHT22;8426;48.496;9.098;2023-08-20T07:15:00;35.00;99.90
16625;DHT22;8426;48.496;9.098;2023-08-20T07:20:06;35.50;99.90
16625;DHT22;8426;48.496;9.098;2023-08-20T07:25:12;36.90;99.90
16625;DHT22;8426;48.496;9.098;2023-08-20T07:30:16;35.20;99.90
16625;DHT22;8426;48.496;9.098;2023-08-20T07:35:19;35.60;99.90
16625;DHT22;8426;48.496;9.098;2023-08-20T07:40:24;35.20;99.90
16625;DHT22;8426;48.496;9.098;2023-08-20T07:45:28;34.80;99.90
16625;DHT22;8426;48.496;9.098;2023-08-20T07:50:31;35.90;99.80
16625;DHT22;8426;48.496;9.098;2023-08-20T07:55:39;36.10;99.70
16625;DHT22;8426;48.496;9.098;2023-08-20T08:00:46;36.50;99.80
16625;DHT22;8426;48.496;9.098;2023-08-20T08:05:53;35.30;99.90
16625;DHT22;8426;48.496;9.098;2023-08-20T08:10:58;34.00;99.90
16625;DHT22;8426;48.496;9.098;2023-08-20T08:16:02;33.70;99.90
16625;DHT22;8426;48.496;9.098;2023-08-20T08:21:05;34.70;99.90
16625;DHT22;8426;48.496;9.098;2023-08-20T08:26:10;35.50;99.90
16625;DHT22;8426;48.496;9.098;2023-08-20T08:31:20;35.90;98.90
16625;DHT22;8426;48.496;9.098;2023-08-20T08:36:23;35.60;99.50
16625;DHT22;8426;48.496;9.098;2023-08-20T08:41:32;36.70;98.60
16625;DHT22;8426;48.496;9.098;2023-08-20T08:46:38;37.00;97.50
16625;DHT22;8426;48.496;9.098;2023-08-20T08:51:42;37.10;97.90
16625;DHT22;8426;48.496;9.098;2023-08-20T08:56:49;38.60;96.50
16625;DHT22;8426;48.496;9.098;2023-08-20T09:01:55;38.90;95.80
16625;DHT22;8426;48.496;9.098;2023-08-20T09:06:59;37.70;96.50
16625;DHT22;8426;48.496;9.098;2023-08-20T09:12:12;38.10;96.60
16625;DHT22;8426;48.496;9.098;2023-08-20T09:17:18;37.20;97.30
16625;DHT22;8426;48.496;9.098;2023-08-20T09:22:23;36.20;97.30
16625;DHT22;8426;48.496;9.098;2023-08-20T09:27:39;35.80;98.60
16625;DHT22;8426;48.496;9.098;2023-08-20T09:33:10;36.00;98.50
16625;DHT22;8426;48.496;9.098;2023-08-20T09:38:21;36.40;98.20
16625;DHT22;8426;48.496;9.098;2023-08-20T09:43:28;37.10;98.10
16625;DHT22;8426;48.496;9.098;2023-08-20T09:48:48;38.00;95.90
16625;DHT22;8426;48.496;9.098;2023-08-20T09:54:02;35.60;97.60
16625;DHT22;8426;48.496;9.098;2023-08-20T09:59:13;35.10;98.50
16625;DHT22;8426;48.496;9.098;2023-08-20T10:04:21;35.70;97.20
16625;DHT22;8426;48.496;9.098;2023-08-20T10:09:27;34.70;97.80
16625;DHT22;8426;48.496;9.098;2023-08-20T10:14:32;34.60;98.70
16625;DHT22;8426;48.496;9.098;2023-08-20T10:19:37;33.60;99.20
16625;DHT22;8426;48.496;9.098;2023-08-20T10:24:44;33.40;99.90
16625;DHT22;8426;48.496;9.098;2023-08-20T10:29:53;33.80;99.90
16625;DHT22;8426;48.496;9.098;2023-08-20T10:34:57;33.50;98.80
16625;DHT22;8426;48.496;9.098;2023-08-20T10:40:01;33.10;99.90
16625;DHT22;8426;48.496;9.098;2023-08-20T10:45:08;33.50;99.90
16625;DHT22;8426;48.496;9.098;2023-08-20T10:50:18;33.50;99.90
16625;DHT22;8426;48.496;9.098;2023-08-20T10:55:24;33.20;99.90
16625;DHT22;8426;48.496;9.098;2023-08-20T11:00:32;33.40;99.90
16625;DHT22;8426;48.496;9.098;2023-08-20T11:05:37;33.70;99.90
16625;DHT22;8426;48.496;9.098;2023-08-20T11:10:40;33.50;99.90
16625;DHT22;8426;48.496;9.098;2023-08-20T11:15:45;33.50;99.90
16625;DHT22;8426;48.496;9.098;2023-08-20T11:20:49;33.20;99.90
16625;DHT22;8426;48.496;9.098;2023-08-20T11:25:55;33.30;99.90
16625;DHT22;8426;48.496;9.098;2023-08-20T11:31:01;33.40;99.90
16625;DHT22;8426;48.496;9.098;2023-08-20T11:36:10;33.60;99.90
16625;DHT22;8426;48.496;9.098;2023-08-20T11:41:14;33.70;99.90
16625;DHT22;8426;48.496;9.098;2023-08-20T11:46:22;33.70;99.90
16625;DHT22;8426;48.496;9.098;2023-08-20T11:51:26;33.60;99.90
16625;DHT22;8426;48.496;9.098;2023-08-20T11:56:29;33.80;99.90
16625;DHT22;8426;48.496;9.098;2023-08-20T12:01:34;33.50;99.90
16625;DHT22;8426;48.496;9.098;2023-08-20T12:06:38;33.60;99.90
16625;DHT22;8426;48.496;9.098;2023-08-20T12:11:48;33.60;99.90
16625;DHT22;8426;48.496;9.098;2023-08-20T12:16:53;34.10;99.60
16625;DHT22;8426;48.496;9.098;2023-08-20T12:21:59;34.00;98.90
16625;DHT22;8426;48.496;9.098;2023-08-20T12:27:03;33.30;99.10
16625;DHT22;8426;48.496;9.098;2023-08-20T12:32:08;33.70;98.60
16625;DHT22;8426;48.496;9.098;2023-08-20T12:37:11;33.70;99.70
16625;DHT22;8426;48.496;9.098;2023-08-20T12:42:16;34.10;98.50
16625;DHT22;8426;48.496;9.098;2023-08-20T12:47:23;34.10;99.90
16625;DHT22;8426;48.496;9.098;2023-08-20T12:52:26;33.70;99.90
16625;DHT22;8426;48.496;9.098;2023-08-20T12:57:52;33.80;99.30
16625;DHT22;8426;48.496;9.098;2023-08-20T13:02:58;33.90;99.30
16625;DHT22;8426;48.496;9.098;2023-08-20T13:08:03;33.90;98.60
16625;DHT22;8426;48.496;9.098;2023-08-20T13:13:10;33.50;98.80
16625;DHT22;8426;48.496;9.098;2023-08-20T13:18:18;33.50;99.90
16625;DHT22;8426;48.496;9.098;2023-08-20T13:23:22;33.30;98.90
16625;DHT22;8426;48.496;9.098;2023-08-20T13:28:26;33.60;99.80
16625;DHT22;8426;48.496;9.098;2023-08-20T13:33:33;33.70;99.70
16625;DHT22;8426;48.496;9.098;2023-08-20T13:38:46;33.70;99.60
16625;DHT22;8426;48.496;9.098;2023-08-20T13:43:49;33.30;99.90
16625;DHT22;8426;48.496;9.098;2023-08-20T13:48:54;33.40;99.40
16625;DHT22;8426;48.496;9.098;2023-08-20T13:53:57;33.30;99.70
16625;DHT22;8426;48.496;9.098;2023-08-20T13:59:09;33.50;99.90
16625;DHT22;8426;48.496;9.098;2023-08-20T14:04:25;33.70;99.60
16625;DHT22;8426;48.496;9.098;2023-08-20T14:09:59;33.70;99.20
16625;DHT22;8426;48.496;9.098;2023-08-20T14:15:07;33.70;99.40
16625;DHT22;8426;48.496;9.098;2023-08-20T14:20:13;33.70;99.90
16625;DHT22;8426;48.496;9.098;2023-08-20T14:25:28;33.80;99.50
16625;DHT22;8426;48.496;9.098;2023-08-20T14:31:06;33.50;99.90
16625;DHT22;8426;48.496;9.098;2023-08-20T14:36:11;33.40;98.60
16625;DHT22;8426;48.496;9.098;2023-08-20T14:41:15;33.50;99.40
16625;DHT22;8426;48.496;9.098;2023-08-20T14:46:18;33.50;99.90
16625;DHT22;8426;48.496;9.098;2023-08-20T14:51:24;33.60;98.90
16625;DHT22;8426;48.496;9.098;2023-08-20T14:56:38;33.50;99.20
16625;DHT22;8426;48.496;9.098;2023-08-20T15:01:47;33.60;99.60
16625;DHT22;8426;48.496;9.098;2023-08-20T15:07:04;33.50;99.90
16625;DHT22;8426;48.496;9.098;2023-08-20T15:12:12;33.60;99.90
16625;DHT22;8426;48.496;9.098;2023-08-20T15:17:20;33.60;98.90
16625;DHT22;8426;48.496;9.098;2023-08-20T15:22:26;33.50;99.80
16625;DHT22;8426;48.496;9.098;2023-08-20T15:27:32;33.30;99.90
16625;DHT22;8426;48.496;9.098;2023-08-20T15:32:38;32.70;99.90
16625;DHT22;8426;48.496;9.098;2023-08-20T15:37:53;32.60;99.90
16625;DHT22;8426;48.496;9.098;2023-08-20T15:42:57;32.70;99.90
16625;DHT22;8426;48.496;9.098;2023-08-20T15:48:14;32.50;99.90
16625;DHT22;8426;48.496;9.098;2023-08-20T15:53:28;32.30;99.90
16625;DHT22;8426;48.496;9.098;2023-08-20T15:58:32;32.00;99.90
16625;DHT22;8426;48.496;9.098;2023-08-20T16:03:36;31.50;99.90
16625;DHT22;8426;48.496;9.098;2023-08-20T16:08:49;31.40;99.90
16625;DHT22;8426;48.496;9.098;2023-08-20T16:13:59;31.60;99.90
16625;DHT22;8426;48.496;9.098;2023-08-20T16:19:13;31.70;99.90
16625;DHT22;8426;48.496;9.098;2023-08-20T16:24:19;31.90;99.90
16625;DHT22;8426;48.496;9.098;2023-08-20T16:29:24;32.00;99.90
16625;DHT22;8426;48.496;9.098;2023-08-20T16:34:37;31.60;99.90
16625;DHT22;8426;48.496;9.098;2023-08-20T16:39:52;31.00;99.90
16625;DHT22;8426;48.496;9.098;2023-08-20T16:45:09;30.60;99.90
16625;DHT22;8426;48.496;9.098;2023-08-20T16:50:21;30.30;99.90
16625;DHT22;8426;48.496;9.098;2023-08-20T16:55:29;30.20;99.90
16625;DHT22;8426;48.496;9.098;2023-08-20T17:00:32;29.90;99.90
16625;DHT22;8426;48.496;9.098;2023-08-20T17:05:43;29.90;99.90
16625;DHT22;8426;48.496;9.098;2023-08-20T17:10:51;29.80;99.90
16625;DHT22;8426;48.496;9.098;2023-08-20T17:15:55;29.90;99.90
16625;DHT22;8426;48.496;9.098;2023-08-20T17:20:59;29.90;99.90
16625;DHT22;8426;48.496;9.098;2023-08-20T17:26:05;29.80;99.90
16625;DHT22;8426;48.496;9.098;2023-08-20T17:31:10;29.80;99.90
16625;DHT22;8426;48.496;9.098;2023-08-20T17:36:14;29.70;99.90
16625;DHT22;8426;48.496;9.098;2023-08-20T17:47:42;29.40;99.90
16625;DHT22;8426;48.496;9.098;2023-08-20T17:52:49;29.40;99.90
16625;DHT22;8426;48.496;9.098;2023-08-20T17:57:58;29.30;99.90
16625;DHT22;8426;48.496;9.098;2023-08-20T18:03:06;28.90;99.90
16625;DHT22;8426;48.496;9.098;2023-08-20T18:08:09;28.70;99.90
16625;DHT22;8426;48.496;9.098;2023-08-20T18:13:15;28.50;99.90
16625;DHT22;8426;48.496;9.098;2023-08-20T18:18:23;28.30;99.90
16625;DHT22;8426;48.496;9.098;2023-08-20T18:23:27;28.10;99.90
16625;DHT22;8426;48.496;9.098;2023-08-20T18:28:32;27.90;99.90
16625;DHT22;8426;48.496;9.098;2023-08-20T18:33:41;27.70;99.90
16625;DHT22;8426;48.496;9.098;2023-08-20T18:38:45;27.50;99.90
16625;DHT22;8426;48.496;9.098;2023-08-20T18:43:54;27.30;99.90
16625;DHT22;8426;48.496;9.098;2023-08-20T18:49:00;27.20;99.90
16625;DHT22;8426;48.496;9.098;2023-08-20T18:54:06;27.00;99.90
16625;DHT22;8426;48.496;9.098;2023-08-20T18:59:13;26.80;99.90
16625;DHT22;8426;48.496;9.098;2023-08-20T19:04:19;26.70;99.90
16625;DHT22;8426;48.496;9.098;2023-08-20T19:09:22;26.60;99.90
16625;DHT22;8426;48.496;9.098;2023-08-20T19:14:26;26.40;99.90
16625;DHT22;8426;48.496;9.098;2023-08-20T19:19:32;26.30;99.90
16625;DHT22;8426;48.496;9.098;2023-08-20T19:24:35;26.10;99.90
16625;DHT22;8426;48.496;9.098;2023-08-20T19:29:39;26.00;99.90
16625;DHT22;8426;48.496;9.098;2023-08-20T19:34:44;25.70;99.90
